ESCF/LPI METAR and TAF weather

Enter ICAO airport designator
Station Type Date Time Source
ESCF METAR 2018/10/22 15:50 UTC NOAA

ESCF 221550Z AUTO 26015KT 9999 NCD 09/01 Q1015


Station Type Date Time Source
ESCF Decoded METAR 2018/10/22 15:50 UTC NOAA

Linkoping / Malmen, Sweden (ESCF) 58-24N 015-31E 117M
Oct 22, 2018 - 11:50 AM EDT / 2018.10.22 1550 UTC
Wind: from the W (260 degrees) at 17 MPH (15 KT):0
Visibility: greater than 7 mile(s):0
Temperature: 48 F (9 C)
Dew Point: 33 F (1 C)
Relative Humidity: 57%
Pressure (altimeter): 29.97 in. Hg (1015 hPa)
ob: ESCF 221550Z AUTO 26015KT 9999 NCD 09/01 Q1015
cycle: 16

Station Type Date Time Source
ESCF TAF UTC NOAA

Error!


Example: see airport list